Time;durP1;ratioP1;P1;durP2;ratioP2;P2;SDS_P1;SDS_P2;PMS_P1;PMS_P2;Temp;Humidity;BMP_temperature;BMP_pressure;BME280_temperature;BME280_humidity;BME280_pressure;Samples;Min_cycle;Max_cycle;Signal;HPM_P1;HPM_P2
2023/09/23 00:01:32;;;;;;;8.02;1.85;;;14.60;99.90;;;;;;5012732;28;20488;-51
2023/09/23 00:03:57;;;;;;;2.38;1.83;;;14.60;99.90;;;;;;5017791;28;20026;-50
2023/09/23 00:06:23;;;;;;;4.28;1.55;;;14.60;99.90;;;;;;5016260;28;20022;-52
2023/09/23 00:08:49;;;;;;;7.70;1.83;;;14.50;99.90;;;;;;5017056;28;20030;-49
2023/09/23 00:11:15;;;;;;;2.58;2.00;;;14.50;99.90;;;;;;5019242;28;20112;-51
2023/09/23 00:13:40;;;;;;;4.70;1.67;;;14.50;99.90;;;;;;5021132;28;20487;-49
2023/09/23 00:16:08;;;;;;;1.55;1.30;;;14.40;99.90;;;;;;5024222;28;20021;-51
2023/09/23 00:18:33;;;;;;;2.33;1.63;;;14.40;99.90;;;;;;5025724;28;20057;-51
2023/09/23 00:20:59;;;;;;;3.97;1.50;;;14.30;99.90;;;;;;5025729;28;20499;-51
2023/09/23 00:23:24;;;;;;;2.22;1.65;;;14.30;99.90;;;;;;5026488;28;20029;-52
2023/09/23 00:25:51;;;;;;;2.75;1.23;;;14.30;99.90;;;;;;5025658;28;20356;-51
2023/09/23 00:28:16;;;;;;;4.82;1.33;;;14.20;99.90;;;;;;5029472;28;20025;-51
2023/09/23 00:30:45;;;;;;;3.40;1.45;;;14.20;99.90;;;;;;5028766;28;20017;-52
2023/09/23 00:33:14;;;;;;;3.97;1.13;;;14.20;99.90;;;;;;5025756;28;20028;-52
2023/09/23 00:35:40;;;;;;;1.92;1.25;;;14.10;99.90;;;;;;5018414;28;20022;-52
2023/09/23 00:38:07;;;;;;;4.30;1.63;;;14.10;99.90;;;;;;5019674;28;20030;-52
2023/09/23 00:40:32;;;;;;;1.65;1.10;;;14.10;99.90;;;;;;5019789;28;20061;-50
2023/09/23 00:43:06;;;;;;;1.40;1.10;;;14.10;99.90;;;;;;5016050;28;20084;-51
2023/09/23 00:45:33;;;;;;;3.42;1.40;;;14.10;99.90;;;;;;5024524;28;20054;-51
2023/09/23 00:47:59;;;;;;;1.70;0.95;;;14.00;99.90;;;;;;5017236;28;20026;-51
2023/09/23 00:50:25;;;;;;;2.40;0.85;;;14.00;99.90;;;;;;5019250;28;20096;-51
2023/09/23 00:52:52;;;;;;;1.70;0.93;;;14.00;99.90;;;;;;5018763;28;20046;-51
2023/09/23 00:55:22;;;;;;;1.58;1.00;;;13.90;99.90;;;;;;5023388;28;20049;-50
2023/09/23 00:57:49;;;;;;;3.37;1.20;;;13.80;99.90;;;;;;5022079;28;20098;-51
2023/09/23 01:00:24;;;;;;;7.57;1.38;;;13.80;99.90;;;;;;5022908;28;20052;-50
2023/09/23 01:02:49;;;;;;;1.75;1.20;;;13.80;99.90;;;;;;5021467;28;20468;-50
2023/09/23 01:05:18;;;;;;;2.20;1.00;;;13.80;99.90;;;;;;5020338;28;20095;-49
2023/09/23 01:07:45;;;;;;;3.13;1.70;;;13.70;99.90;;;;;;5023422;28;20021;-51
2023/09/23 01:10:12;;;;;;;1.88;1.13;;;13.70;99.90;;;;;;5026905;28;20021;-52
2023/09/23 01:12:37;;;;;;;2.33;1.02;;;13.70;99.90;;;;;;5025361;28;20100;-50
2023/09/23 01:15:17;;;;;;;2.72;1.17;;;13.60;99.90;;;;;;5025044;28;20105;-51
2023/09/23 01:17:49;;;;;;;2.13;1.40;;;13.60;99.90;;;;;;5025465;28;20116;-50
2023/09/23 01:20:16;;;;;;;4.57;1.15;;;13.60;99.90;;;;;;5027391;28;20439;-51
2023/09/23 01:22:41;;;;;;;1.98;1.08;;;13.60;99.90;;;;;;5027963;28;20086;-51
2023/09/23 01:25:07;;;;;;;2.95;1.15;;;13.50;99.90;;;;;;5026292;28;20037;-50
2023/09/23 01:27:34;;;;;;;1.75;1.00;;;13.50;99.90;;;;;;5016250;28;20035;-50
2023/09/23 01:30:03;;;;;;;1.52;0.80;;;13.50;99.90;;;;;;5027747;28;20567;-50
2023/09/23 01:32:47;;;;;;;3.00;1.05;;;13.50;99.90;;;;;;5009700;28;20449;-48
2023/09/23 01:35:16;;;;;;;2.13;1.08;;;13.40;99.90;;;;;;5012721;28;20569;-49
2023/09/23 01:37:43;;;;;;;1.77;1.17;;;13.40;99.90;;;;;;5015712;28;20116;-51
2023/09/23 01:40:08;;;;;;;4.05;0.98;;;13.40;99.90;;;;;;5014346;28;20018;-49
2023/09/23 01:42:35;;;;;;;2.28;1.15;;;13.30;99.90;;;;;;5013634;28;20497;-50
2023/09/23 01:45:03;;;;;;;2.22;1.20;;;13.30;99.90;;;;;;5016155;28;20510;-51
2023/09/23 01:47:29;;;;;;;3.60;0.80;;;13.30;99.90;;;;;;5015951;28;20475;-50
2023/09/23 01:49:54;;;;;;;1.23;0.90;;;13.30;99.90;;;;;;5020885;28;20068;-50
2023/09/23 01:52:20;;;;;;;2.20;1.17;;;13.30;99.90;;;;;;5017333;28;20032;-51
2023/09/23 01:54:48;;;;;;;2.05;1.00;;;13.30;99.90;;;;;;5016710;28;20095;-50
2023/09/23 01:57:16;;;;;;;2.60;1.00;;;13.30;99.90;;;;;;5018560;28;20407;-49
2023/09/23 01:59:43;;;;;;;2.70;0.85;;;13.30;99.90;;;;;;5019291;28;20018;-48
2023/09/23 02:02:09;;;;;;;2.35;1.25;;;13.20;99.90;;;;;;5012842;28;20033;-50
2023/09/23 02:04:37;;;;;;;1.88;0.88;;;13.20;99.90;;;;;;5017870;28;20364;-49
2023/09/23 02:07:03;;;;;;;2.22;0.80;;;13.20;99.90;;;;;;5017733;28;20033;-47
2023/09/23 02:09:30;;;;;;;3.00;1.00;;;13.20;99.90;;;;;;5016837;28;20029;-50
2023/09/23 02:11:56;;;;;;;3.80;0.73;;;13.20;99.90;;;;;;5014309;28;20029;-49
2023/09/23 02:14:21;;;;;;;4.43;1.17;;;13.10;99.90;;;;;;5011781;28;20395;-47
2023/09/23 02:16:47;;;;;;;3.33;1.33;;;13.20;99.90;;;;;;5011520;28;20037;-49
2023/09/23 02:19:13;;;;;;;4.10;1.50;;;13.10;99.90;;;;;;5017661;28;20034;-51
2023/09/23 02:21:38;;;;;;;3.85;1.85;;;13.10;99.90;;;;;;5009234;28;20037;-48
2023/09/23 02:24:06;;;;;;;1.63;1.30;;;13.00;99.90;;;;;;5016776;28;20521;-50
2023/09/23 02:26:31;;;;;;;5.53;2.17;;;13.00;99.90;;;;;;5013722;28;20032;-49
2023/09/23 02:28:57;;;;;;;5.68;1.85;;;13.00;99.90;;;;;;5013676;28;20030;-48
2023/09/23 02:31:23;;;;;;;4.18;1.80;;;13.00;99.90;;;;;;5037430;28;20018;-49
2023/09/23 02:33:48;;;;;;;4.05;2.10;;;12.90;99.90;;;;;;5022016;28;20033;-49
2023/09/23 02:36:14;;;;;;;5.22;1.88;;;12.90;99.90;;;;;;5018052;28;20057;-49
2023/09/23 02:38:42;;;;;;;4.13;2.10;;;12.90;99.90;;;;;;5016273;28;20415;-47
2023/09/23 02:41:08;;;;;;;3.38;1.73;;;12.80;99.90;;;;;;5018639;28;20026;-50
2023/09/23 02:43:34;;;;;;;6.13;1.90;;;12.80;99.90;;;;;;5015690;28;20022;-49
2023/09/23 02:46:03;;;;;;;3.92;2.05;;;12.80;99.90;;;;;;5011302;28;20439;-50
2023/09/23 02:48:29;;;;;;;10.75;2.05;;;12.80;99.90;;;;;;5016540;28;20010;-49
2023/09/23 02:50:58;;;;;;;3.97;1.67;;;12.80;99.90;;;;;;5014552;28;20557;-52
2023/09/23 02:53:24;;;;;;;3.37;1.80;;;12.70;99.90;;;;;;5017091;28;20029;-51
2023/09/23 02:56:00;;;;;;;3.88;2.30;;;12.80;99.90;;;;;;5010483;28;20018;-51
2023/09/23 02:58:25;;;;;;;3.05;2.13;;;12.70;99.90;;;;;;5014526;28;20483;-50
2023/09/23 03:00:57;;;;;;;3.65;2.15;;;12.70;99.90;;;;;;5014958;28;20045;-51
2023/09/23 03:03:27;;;;;;;1.83;1.48;;;12.70;99.90;;;;;;5013124;28;20084;-51
2023/09/23 03:05:57;;;;;;;4.35;2.00;;;12.70;99.90;;;;;;5018043;28;20014;-51
2023/09/23 03:08:24;;;;;;;2.57;1.87;;;12.80;99.90;;;;;;5017558;28;20018;-50
2023/09/23 03:10:52;;;;;;;3.80;1.75;;;12.80;99.90;;;;;;5014794;28;20261;-50
2023/09/23 03:13:18;;;;;;;3.75;1.58;;;12.80;99.90;;;;;;5010242;28;20094;-51
2023/09/23 03:15:51;;;;;;;2.88;1.45;;;12.70;99.90;;;;;;5010534;28;20018;-51
2023/09/23 03:18:27;;;;;;;4.25;1.98;;;12.80;99.90;;;;;;5025273;28;20026;-51
2023/09/23 03:20:54;;;;;;;3.25;1.70;;;12.70;99.90;;;;;;5016885;28;20018;-49
2023/09/23 03:23:20;;;;;;;3.85;1.80;;;12.70;99.90;;;;;;5010435;28;20472;-50
2023/09/23 03:25:47;;;;;;;3.95;1.85;;;12.70;99.90;;;;;;5012332;28;20109;-51
2023/09/23 03:28:16;;;;;;;3.22;1.45;;;12.70;99.90;;;;;;5021177;28;20030;-51
2023/09/23 03:30:44;;;;;;;3.53;1.70;;;12.70;99.90;;;;;;5014160;28;20087;-51
2023/09/23 03:33:11;;;;;;;2.08;1.35;;;12.70;99.90;;;;;;5021455;28;20061;-51
2023/09/23 03:35:37;;;;;;;3.78;1.60;;;12.70;99.90;;;;;;5014398;28;20384;-51
2023/09/23 03:38:03;;;;;;;4.07;1.35;;;12.60;99.90;;;;;;5022293;28;20057;-51
2023/09/23 03:40:31;;;;;;;1.60;1.30;;;12.70;99.90;;;;;;5013993;28;20026;-51
2023/09/23 03:43:01;;;;;;;3.05;1.42;;;12.70;99.90;;;;;;5023575;28;20034;-52
2023/09/23 03:45:27;;;;;;;3.40;1.25;;;12.70;99.90;;;;;;5014565;28;20100;-52
2023/09/23 03:47:52;;;;;;;3.33;1.10;;;12.70;99.90;;;;;;5021623;28;20083;-51
2023/09/23 03:50:18;;;;;;;1.42;1.20;;;12.70;99.90;;;;;;5042012;28;20455;-50
2023/09/23 03:52:44;;;;;;;2.83;1.75;;;12.70;99.90;;;;;;5023794;28;20036;-51
2023/09/23 03:55:13;;;;;;;3.90;1.27;;;12.70;99.90;;;;;;5016687;28;20026;-52
2023/09/23 03:57:39;;;;;;;1.73;1.20;;;12.60;99.90;;;;;;5031259;28;20079;-48
2023/09/23 04:00:15;;;;;;;6.97;1.25;;;12.70;99.90;;;;;;5016038;28;20038;-51
2023/09/23 04:02:42;;;;;;;2.75;1.10;;;12.60;99.90;;;;;;5018676;28;20156;-51
2023/09/23 04:05:07;;;;;;;2.20;1.10;;;12.60;99.90;;;;;;5016857;28;20080;-50
2023/09/23 04:07:33;;;;;;;2.30;1.25;;;12.60;99.90;;;;;;5022906;28;20026;-50
2023/09/23 04:09:58;;;;;;;4.93;1.95;;;12.60;99.90;;;;;;5024664;28;20026;-51
2023/09/23 04:12:24;;;;;;;2.00;1.23;;;12.60;99.90;;;;;;5013833;28;20018;-50
2023/09/23 04:14:50;;;;;;;3.25;1.33;;;12.60;99.90;;;;;;5030177;28;20091;-51
2023/09/23 04:17:15;;;;;;;3.42;1.67;;;12.60;99.90;;;;;;5015274;28;20029;-49
2023/09/23 04:19:41;;;;;;;4.40;1.50;;;12.60;99.90;;;;;;5014279;28;20100;-52
2023/09/23 04:22:06;;;;;;;2.22;1.35;;;12.60;99.90;;;;;;5015164;28;20026;-50
2023/09/23 04:24:32;;;;;;;3.47;1.92;;;12.60;99.90;;;;;;5013257;28;20025;-51
2023/09/23 04:26:59;;;;;;;2.30;1.52;;;12.50;99.90;;;;;;5015733;28;20345;-48
2023/09/23 04:29:25;;;;;;;3.88;1.52;;;12.50;99.90;;;;;;5014253;28;20010;-51
2023/09/23 04:31:51;;;;;;;6.38;1.67;;;12.50;99.90;;;;;;5013858;28;20088;-50
2023/09/23 04:34:17;;;;;;;1.90;1.60;;;12.50;99.90;;;;;;5014413;28;20092;-51
2023/09/23 04:36:43;;;;;;;4.13;1.67;;;12.50;99.90;;;;;;5017470;28;20033;-51
2023/09/23 04:39:09;;;;;;;1.70;1.20;;;12.50;99.90;;;;;;5015263;28;20038;-51
2023/09/23 04:41:35;;;;;;;1.42;1.13;;;12.40;99.90;;;;;;5023666;28;20025;-51
2023/09/23 04:44:00;;;;;;;1.90;1.25;;;12.40;99.90;;;;;;5016759;28;20026;-52
2023/09/23 04:46:32;;;;;;;2.95;1.48;;;12.40;99.90;;;;;;5029933;28;20017;-51
2023/09/23 04:48:57;;;;;;;1.77;1.25;;;12.40;99.90;;;;;;5017492;28;20072;-50
2023/09/23 04:51:23;;;;;;;2.22;1.25;;;12.40;99.90;;;;;;5014281;28;20018;-51
2023/09/23 04:53:49;;;;;;;2.70;1.60;;;12.40;99.90;;;;;;5012954;28;20407;-51
2023/09/23 04:56:17;;;;;;;2.90;1.58;;;12.40;99.90;;;;;;5018686;28;20108;-51
2023/09/23 04:58:43;;;;;;;2.60;1.30;;;12.40;99.90;;;;;;5021005;28;20028;-48
2023/09/23 05:01:14;;;;;;;4.22;1.48;;;12.50;99.90;;;;;;5015379;28;20030;-51
2023/09/23 05:03:42;;;;;;;;;;;12.40;99.90;;;;;;5015033;28;20021;-51
2023/09/23 05:06:08;;;;;;;1.73;1.55;;;12.40;99.90;;;;;;5022971;28;19917;-51
2023/09/23 05:08:34;;;;;;;2.80;1.50;;;12.40;99.90;;;;;;5024711;28;20064;-51
2023/09/23 05:11:00;;;;;;;2.35;1.65;;;12.40;99.90;;;;;;5017204;28;20026;-51
2023/09/23 05:13:26;;;;;;;3.47;1.58;;;12.40;99.90;;;;;;5015165;28;20018;-51
2023/09/23 05:15:51;;;;;;;2.53;1.40;;;12.40;99.90;;;;;;5022070;28;20030;-51
2023/09/23 05:18:17;;;;;;;1.75;1.50;;;12.40;99.90;;;;;;5016043;28;20052;-52
2023/09/23 05:20:43;;;;;;;3.10;1.70;;;12.50;99.90;;;;;;5014267;28;20026;-52
2023/09/23 05:23:09;;;;;;;1.48;1.30;;;12.50;99.90;;;;;;5026864;28;20120;-50
2023/09/23 05:25:35;;;;;;;2.45;1.70;;;12.60;99.90;;;;;;5019681;28;20383;-51
2023/09/23 05:28:03;;;;;;;3.88;2.08;;;12.60;99.90;;;;;;5013010;28;20476;-51
2023/09/23 05:30:28;;;;;;;1.67;1.58;;;12.60;99.90;;;;;;5014422;28;20040;-53
2023/09/23 05:32:54;;;;;;;3.53;1.85;;;12.60;99.90;;;;;;5014633;28;20522;-49
2023/09/23 05:35:19;;;;;;;2.22;2.00;;;12.70;99.90;;;;;;5017638;28;20030;-50
2023/09/23 05:37:47;;;;;;;3.22;1.92;;;12.70;99.90;;;;;;5019355;28;20030;-51
2023/09/23 05:42:50;;;;;;;2.60;1.83;;;12.70;99.90;;;;;;5014243;28;20022;-51
2023/09/23 05:45:17;;;;;;;2.30;2.10;;;12.80;99.90;;;;;;5013273;28;20025;-51
2023/09/23 05:47:47;;;;;;;1.98;1.77;;;12.90;99.90;;;;;;5017656;28;20053;-51
2023/09/23 05:50:15;;;;;;;2.50;2.10;;;12.90;99.90;;;;;;5014053;28;20021;-50
2023/09/23 05:52:41;;;;;;;8.43;2.47;;;12.90;99.90;;;;;;5017819;28;20084;-51
2023/09/23 05:55:08;;;;;;;2.38;1.58;;;13.00;99.90;;;;;;5012423;28;20372;-51
2023/09/23 05:57:38;;;;;;;2.17;1.95;;;13.00;99.90;;;;;;5019337;28;20116;-51
2023/09/23 06:00:08;;;;;;;;;;;13.10;99.90;;;;;;5019026;28;20593;-51
2023/09/23 06:02:34;;;;;;;2.60;1.80;;;13.10;99.90;;;;;;5013659;28;19910;-50
2023/09/23 06:05:01;;;;;;;2.83;2.03;;;13.10;99.90;;;;;;5016957;28;20117;-49
2023/09/23 06:07:33;;;;;;;2.65;1.90;;;13.10;99.90;;;;;;5013088;28;20036;-51
2023/09/23 06:09:59;;;;;;;3.65;2.25;;;13.10;99.90;;;;;;5016309;28;20426;-51
2023/09/23 06:12:31;;;;;;;2.47;2.28;;;13.10;99.90;;;;;;5021008;28;20439;-52
2023/09/23 06:15:01;;;;;;;3.78;2.45;;;13.10;99.90;;;;;;5017422;28;20030;-52
2023/09/23 06:17:28;;;;;;;4.53;2.00;;;13.10;99.90;;;;;;5022036;28;20626;-51
2023/09/23 06:19:56;;;;;;;2.55;2.33;;;13.10;99.90;;;;;;5030080;28;20079;-51
2023/09/23 06:22:22;;;;;;;4.90;2.15;;;13.10;99.90;;;;;;5026249;28;20075;-52
2023/09/23 06:24:50;;;;;;;2.97;2.67;;;13.10;99.90;;;;;;5018518;28;20022;-52
2023/09/23 06:27:16;;;;;;;3.70;3.22;;;13.10;99.90;;;;;;5021332;28;20022;-51
2023/09/23 06:29:42;;;;;;;3.95;3.15;;;13.10;99.90;;;;;;5034360;28;20510;-52
2023/09/23 06:32:08;;;;;;;4.03;3.60;;;13.10;99.90;;;;;;5019410;28;20026;-52
2023/09/23 06:34:34;;;;;;;4.85;4.45;;;13.00;99.90;;;;;;5013647;28;20502;-50
2023/09/23 06:37:00;;;;;;;6.95;4.85;;;13.00;99.90;;;;;;5021257;28;20036;-52
2023/09/23 06:39:25;;;;;;;7.05;5.55;;;13.00;99.90;;;;;;5013635;28;20025;-52
2023/09/23 06:41:51;;;;;;;7.88;5.90;;;13.10;99.90;;;;;;5018309;28;20422;-52
2023/09/23 06:44:17;;;;;;;7.45;6.30;;;13.10;99.90;;;;;;5024794;28;20084;-51
2023/09/23 06:46:42;;;;;;;6.38;5.68;;;13.10;99.90;;;;;;5016325;28;20014;-52
2023/09/23 06:49:08;;;;;;;5.65;5.07;;;13.20;99.90;;;;;;5017160;28;20407;-53
2023/09/23 06:51:33;;;;;;;6.93;6.22;;;13.20;99.90;;;;;;5019196;28;20022;-52
2023/09/23 06:53:59;;;;;;;9.52;7.70;;;13.20;99.90;;;;;;5015498;28;20038;-49
2023/09/23 06:56:24;;;;;;;9.65;7.35;;;13.20;99.90;;;;;;5021964;28;20025;-51
2023/09/23 06:58:50;;;;;;;9.05;7.38;;;13.20;99.90;;;;;;5016145;28;20452;-52
2023/09/23 07:01:16;;;;;;;8.63;7.72;;;13.30;99.90;;;;;;5017042;28;20043;-52
2023/09/23 07:03:42;;;;;;;6.88;6.15;;;13.40;99.90;;;;;;5033947;28;20054;-52
2023/09/23 07:06:08;;;;;;;7.72;6.93;;;13.50;99.90;;;;;;5022541;28;20057;-52
2023/09/23 07:08:33;;;;;;;9.20;6.97;;;13.60;99.90;;;;;;5017346;28;20048;-52
2023/09/23 07:10:59;;;;;;;8.43;6.85;;;13.70;99.90;;;;;;5020869;28;20022;-52
2023/09/23 07:13:24;;;;;;;8.00;6.93;;;13.80;99.90;;;;;;5019702;28;20399;-52
2023/09/23 07:15:50;;;;;;;7.78;6.82;;;13.90;99.90;;;;;;5020284;28;20480;-51
2023/09/23 07:18:15;;;;;;;8.63;7.35;;;13.90;99.90;;;;;;5027536;28;20029;-51
2023/09/23 07:20:42;;;;;;;8.63;7.15;;;14.00;99.90;;;;;;5019201;28;20036;-51
2023/09/23 07:23:08;;;;;;;9.60;7.00;;;14.00;99.90;;;;;;5023511;28;20033;-51
2023/09/23 07:25:38;;;;;;;8.20;6.60;;;14.10;99.90;;;;;;5038368;28;20029;-51
2023/09/23 07:28:07;;;;;;;8.52;6.53;;;14.20;99.90;;;;;;5019358;28;20101;-51
2023/09/23 07:30:36;;;;;;;7.00;6.22;;;14.20;99.90;;;;;;5021050;28;20471;-51
2023/09/23 07:33:02;;;;;;;8.65;6.90;;;14.20;99.90;;;;;;5017997;28;20383;-51
2023/09/23 07:35:32;;;;;;;8.75;7.05;;;14.20;99.90;;;;;;5021408;28;20025;-52
2023/09/23 07:37:59;;;;;;;6.40;5.73;;;14.30;99.90;;;;;;5019649;28;20026;-51
2023/09/23 07:40:28;;;;;;;11.63;6.90;;;14.30;99.90;;;;;;5019808;28;20292;-52
2023/09/23 07:42:54;;;;;;;7.57;6.18;;;14.20;99.90;;;;;;5018916;28;20426;-53
2023/09/23 07:45:20;;;;;;;6.20;5.60;;;14.20;99.90;;;;;;5023348;28;20029;-52
2023/09/23 07:47:46;;;;;;;6.57;5.72;;;14.40;99.90;;;;;;5039508;28;20068;-51
2023/09/23 07:50:12;;;;;;;7.15;6.07;;;14.50;99.90;;;;;;5023274;28;20034;-51
2023/09/23 07:52:38;;;;;;;7.78;5.90;;;14.50;99.90;;;;;;5024982;28;20029;-51
2023/09/23 07:55:04;;;;;;;6.32;5.45;;;14.60;99.90;;;;;;5035622;28;20030;-52
2023/09/23 07:57:30;;;;;;;7.72;5.95;;;14.70;99.90;;;;;;5019758;28;20104;-52
2023/09/23 07:59:56;;;;;;;7.38;5.80;;;14.80;99.90;;;;;;5025177;28;20026;-52
2023/09/23 08:02:22;;;;;;;6.32;5.70;;;14.90;99.90;;;;;;5022083;28;20030;-52
2023/09/23 08:04:47;;;;;;;6.75;5.32;;;14.80;99.90;;;;;;5037326;28;20029;-52
2023/09/23 08:07:13;;;;;;;6.53;5.30;;;14.80;99.90;;;;;;5018236;28;20487;-50
2023/09/23 08:09:38;;;;;;;7.38;6.65;;;14.80;99.90;;;;;;5021751;28;20067;-53
2023/09/23 08:12:04;;;;;;;8.82;6.18;;;14.90;99.90;;;;;;5017617;28;20076;-51
2023/09/23 08:14:30;;;;;;;6.70;5.97;;;14.90;99.90;;;;;;5021122;28;20109;-60
2023/09/23 08:16:55;;;;;;;5.53;5.03;;;15.30;99.90;;;;;;5019136;28;20033;-59
2023/09/23 08:19:21;;;;;;;6.05;4.50;;;16.30;99.90;;;;;;5022993;28;20040;-60
2023/09/23 08:21:47;;;;;;;5.32;4.80;;;16.90;99.90;;;;;;5019753;28;20105;-60
2023/09/23 08:24:12;;;;;;;4.78;4.32;;;17.10;99.90;;;;;;5018788;28;20065;-59
2023/09/23 08:26:38;;;;;;;4.57;4.18;;;17.60;99.90;;;;;;5017863;28;20030;-59
2023/09/23 08:29:05;;;;;;;3.58;3.03;;;18.20;99.90;;;;;;5024512;28;20033;-60
2023/09/23 08:31:30;;;;;;;6.72;3.63;;;19.30;99.90;;;;;;5021762;28;20356;-59
2023/09/23 08:33:56;;;;;;;6.95;4.45;;;19.90;99.40;;;;;;5022204;28;20447;-60
2023/09/23 08:36:21;;;;;;;3.67;3.15;;;21.40;95.50;;;;;;5020657;28;20437;-60
2023/09/23 08:38:46;;;;;;;5.43;3.03;;;22.40;92.90;;;;;;5019646;28;20040;-60
2023/09/23 08:41:16;;;;;;;3.60;2.47;;;23.50;91.10;;;;;;5022333;28;20034;-60
2023/09/23 08:43:43;;;;;;;4.03;3.22;;;24.00;88.00;;;;;;5014667;28;20022;-59
2023/09/23 08:46:11;;;;;;;4.45;2.40;;;24.60;84.80;;;;;;5022440;28;20481;-60
2023/09/23 08:48:38;;;;;;;4.65;2.63;;;25.50;84.00;;;;;;5018134;28;20395;-60
2023/09/23 08:51:06;;;;;;;3.20;2.90;;;26.40;78.70;;;;;;5026713;28;20246;-61
2023/09/23 08:53:34;;;;;;;4.70;3.00;;;26.10;78.10;;;;;;5022788;28;20117;-59
2023/09/23 08:56:00;;;;;;;4.30;2.90;;;24.70;79.10;;;;;;5022544;28;20080;-59
2023/09/23 08:58:25;;;;;;;3.90;2.70;;;23.50;81.70;;;;;;5025615;28;20124;-60
2023/09/23 09:00:53;;;;;;;3.20;2.60;;;22.10;86.00;;;;;;5018276;28;20454;-60
2023/09/23 09:03:18;;;;;;;3.38;2.80;;;21.70;87.50;;;;;;5019163;28;20479;-60
2023/09/23 09:05:46;;;;;;;4.60;3.55;;;21.20;89.00;;;;;;5021644;28;20031;-60
2023/09/23 09:08:12;;;;;;;5.38;3.05;;;21.50;89.00;;;;;;5023451;28;20029;-60
2023/09/23 09:10:38;;;;;;;4.00;2.58;;;22.10;88.60;;;;;;5016150;28;20037;-60
2023/09/23 09:13:05;;;;;;;5.13;2.85;;;23.00;87.40;;;;;;5019772;28;20173;-59
2023/09/23 09:15:33;;;;;;;6.10;2.17;;;24.20;82.90;;;;;;5020250;28;20030;-60
2023/09/23 09:17:59;;;;;;;3.38;2.08;;;24.80;81.40;;;;;;5022010;28;20041;-60
2023/09/23 09:20:25;;;;;;;3.00;2.13;;;24.90;80.70;;;;;;5022599;28;20037;-60
2023/09/23 09:22:51;;;;;;;2.67;2.00;;;25.40;79.20;;;;;;5018213;28;20041;-60
2023/09/23 09:25:21;;;;;;;3.38;2.05;;;26.40;77.70;;;;;;5022235;28;20033;-60
2023/09/23 09:27:47;;;;;;;2.73;1.77;;;26.90;77.40;;;;;;5018860;28;20014;-60
2023/09/23 09:30:13;;;;;;;2.35;2.00;;;28.00;74.90;;;;;;5021340;28;20280;-59
2023/09/23 09:32:42;;;;;;;2.70;1.95;;;27.30;73.50;;;;;;5023866;28;20059;-59
2023/09/23 09:35:13;;;;;;;3.38;2.05;;;27.40;73.70;;;;;;5021491;28;20061;-60
2023/09/23 09:37:43;;;;;;;3.67;1.70;;;27.10;75.50;;;;;;5023826;28;20117;-59
2023/09/23 09:40:13;;;;;;;3.83;1.70;;;26.30;74.70;;;;;;5019497;28;20071;-60
2023/09/23 09:42:42;;;;;;;4.20;1.85;;;27.20;75.30;;;;;;5019990;28;20390;-60
2023/09/23 09:45:10;;;;;;;3.33;1.70;;;27.40;72.70;;;;;;5020230;28;20036;-60
2023/09/23 09:47:39;;;;;;;4.15;2.35;;;27.70;70.80;;;;;;5021157;28;20021;-60
2023/09/23 09:50:05;;;;;;;2.93;1.63;;;27.00;72.10;;;;;;5022262;28;20033;-60
2023/09/23 09:52:32;;;;;;;2.70;1.63;;;26.20;73.40;;;;;;5021315;28;20044;-59
2023/09/23 09:55:00;;;;;;;5.53;2.28;;;24.80;75.90;;;;;;5020342;28;20037;-59
2023/09/23 09:57:27;;;;;;;4.03;1.90;;;24.10;77.60;;;;;;5026013;28;20025;-59
2023/09/23 09:59:59;;;;;;;3.83;1.55;;;24.00;78.00;;;;;;5019144;28;20014;-59
2023/09/23 10:02:24;;;;;;;2.22;1.73;;;23.90;78.20;;;;;;5020105;28;20057;-59
2023/09/23 10:04:51;;;;;;;9.13;2.38;;;23.10;80.50;;;;;;5022315;28;20018;-59
2023/09/23 10:07:17;;;;;;;2.28;1.85;;;22.70;81.70;;;;;;5017767;28;20430;-59
2023/09/23 10:09:55;;;;;;;5.53;2.40;;;22.20;81.80;;;;;;5022305;28;20025;-59
2023/09/23 10:12:25;;;;;;;5.15;1.88;;;21.30;84.10;;;;;;5022244;28;20375;-60
2023/09/23 10:14:54;;;;;;;2.73;2.03;;;21.00;86.00;;;;;;5017623;28;20021;-60
2023/09/23 10:17:30;;;;;;;3.28;1.52;;;20.20;88.10;;;;;;5018170;28;20456;-59
2023/09/23 10:19:56;;;;;;;7.20;2.10;;;19.70;90.40;;;;;;5017709;28;20034;-60
2023/09/23 10:22:24;;;;;;;5.22;1.70;;;19.80;91.30;;;;;;5018332;28;20425;-60
2023/09/23 10:25:00;;;;;;;5.43;1.90;;;20.60;89.30;;;;;;5022209;28;20022;-59
2023/09/23 10:27:26;;;;;;;7.15;2.10;;;21.00;88.90;;;;;;5019004;28;20033;-59
2023/09/23 10:29:52;;;;;;;4.55;1.60;;;21.40;88.50;;;;;;5019065;28;20392;-59
2023/09/23 10:32:18;;;;;;;6.25;2.45;;;21.30;87.50;;;;;;5021705;28;20033;-60
2023/09/23 10:34:55;;;;;;;4.50;1.73;;;20.90;88.60;;;;;;5022847;28;20033;-60
2023/09/23 10:37:35;;;;;;;3.70;1.90;;;20.30;90.00;;;;;;5030904;28;20111;-59
2023/09/23 10:40:13;;;;;;;4.95;2.13;;;20.00;90.10;;;;;;5021650;28;20026;-60
2023/09/23 10:42:44;;;;;;;4.68;2.00;;;19.70;91.10;;;;;;5019304;28;20040;-60
2023/09/23 10:45:12;;;;;;;6.60;2.30;;;19.30;91.20;;;;;;5017538;28;20383;-60
2023/09/23 10:47:38;;;;;;;3.25;2.22;;;19.30;91.80;;;;;;5021701;28;20022;-59
2023/09/23 10:50:10;;;;;;;3.20;2.15;;;19.60;92.00;;;;;;5020215;28;20399;-58
2023/09/23 10:52:37;;;;;;;3.20;1.77;;;21.30;90.40;;;;;;5014834;28;20052;-60
2023/09/23 10:55:03;;;;;;;3.25;2.00;;;23.10;86.10;;;;;;5023540;28;20042;-59
2023/09/23 10:57:29;;;;;;;4.63;1.98;;;22.70;82.10;;;;;;5028576;28;20539;-59
2023/09/23 10:59:55;;;;;;;5.15;2.17;;;21.80;85.10;;;;;;5014712;28;20105;-58
2023/09/23 11:02:22;;;;;;;5.10;1.85;;;21.70;85.30;;;;;;5020978;28;20030;-59
2023/09/23 11:04:49;;;;;;;4.38;2.08;;;22.00;85.50;;;;;;5017919;28;20026;-58
2023/09/23 11:07:16;;;;;;;3.40;1.92;;;23.00;83.40;;;;;;5017817;28;20467;-59
2023/09/23 11:09:48;;;;;;;5.07;2.50;;;24.40;81.20;;;;;;5021006;28;20061;-60
2023/09/23 11:12:15;;;;;;;3.60;1.70;;;25.50;77.00;;;;;;5034218;28;20025;-60
2023/09/23 11:14:42;;;;;;;4.63;1.52;;;26.80;76.40;;;;;;5019253;28;20030;-60
2023/09/23 11:17:23;;;;;;;4.97;1.73;;;26.80;73.30;;;;;;5022734;28;20076;-60
2023/09/23 11:19:53;;;;;;;2.13;1.35;;;25.90;75.10;;;;;;5022072;28;20025;-60
2023/09/23 11:22:25;;;;;;;7.55;1.63;;;25.30;76.40;;;;;;5018667;28;20032;-59
2023/09/23 11:24:51;;;;;;;3.10;1.70;;;24.70;75.80;;;;;;5016356;28;20034;-60
2023/09/23 11:27:17;;;;;;;2.45;1.63;;;24.10;76.90;;;;;;5022520;28;20018;-60
2023/09/23 11:29:43;;;;;;;3.95;1.65;;;23.70;78.60;;;;;;5023961;28;20022;-59
2023/09/23 11:32:10;;;;;;;3.40;1.58;;;23.10;79.20;;;;;;5016009;28;20501;-60
2023/09/23 11:34:36;;;;;;;7.03;2.10;;;22.50;81.00;;;;;;5012076;28;20037;-60
2023/09/23 11:37:02;;;;;;;4.53;1.92;;;22.10;82.00;;;;;;5015058;28;20049;-60
2023/09/23 11:39:37;;;;;;;5.78;2.08;;;22.20;82.20;;;;;;5020289;28;20407;-59
2023/09/23 11:42:03;;;;;;;3.25;1.60;;;22.40;80.50;;;;;;5021887;28;20145;-59
2023/09/23 11:44:29;;;;;;;4.82;1.73;;;22.20;80.80;;;;;;5023224;28;20029;-59
2023/09/23 11:46:55;;;;;;;9.65;1.95;;;22.00;81.90;;;;;;5010877;28;20079;-60
2023/09/23 11:49:20;;;;;;;5.30;1.92;;;21.90;82.30;;;;;;5024404;28;20018;-59
2023/09/23 11:51:46;;;;;;;6.18;2.13;;;22.50;82.20;;;;;;5024567;28;20041;-59
2023/09/23 11:54:12;;;;;;;3.35;1.80;;;23.10;81.80;;;;;;5022842;28;20042;-59
2023/09/23 11:56:37;;;;;;;3.53;2.00;;;22.60;79.20;;;;;;5019447;28;20032;-59
2023/09/23 11:59:03;;;;;;;4.07;2.13;;;22.00;81.50;;;;;;5017934;28;20036;-59
2023/09/23 12:01:28;;;;;;;2.88;1.58;;;21.40;84.30;;;;;;5021107;28;20037;-59
2023/09/23 12:03:58;;;;;;;4.28;2.22;;;20.70;85.60;;;;;;5025485;28;20411;-58
2023/09/23 12:06:24;;;;;;;4.78;2.22;;;20.70;86.90;;;;;;5028459;28;20525;-60
2023/09/23 12:08:50;;;;;;;6.65;1.83;;;21.10;87.50;;;;;;5020082;28;20536;-58
2023/09/23 12:11:15;;;;;;;5.18;2.13;;;21.60;86.00;;;;;;5019278;28;20105;-58
2023/09/23 12:13:41;;;;;;;4.60;1.85;;;22.30;82.60;;;;;;5023632;28;20037;-59
2023/09/23 12:16:06;;;;;;;2.67;1.60;;;22.80;82.80;;;;;;5020629;28;20030;-58
2023/09/23 12:18:32;;;;;;;3.10;1.90;;;22.50;83.80;;;;;;5027133;28;20064;-58
2023/09/23 12:20:58;;;;;;;3.72;1.85;;;21.80;83.90;;;;;;5018194;28;20483;-58
2023/09/23 12:23:25;;;;;;;2.22;1.60;;;21.00;85.80;;;;;;5024201;28;20483;-58
2023/09/23 12:25:51;;;;;;;2.45;1.95;;;20.60;87.10;;;;;;5018612;28;20101;-59
2023/09/23 12:28:17;;;;;;;4.57;2.20;;;20.10;87.70;;;;;;5019389;28;20017;-59
2023/09/23 12:30:42;;;;;;;2.92;1.70;;;19.90;89.00;;;;;;5023295;28;20029;-58
2023/09/23 12:33:08;;;;;;;5.22;2.58;;;19.70;90.10;;;;;;5024963;28;20033;-59
2023/09/23 12:35:34;;;;;;;3.97;2.00;;;20.20;90.20;;;;;;5023619;28;20026;-58
2023/09/23 12:38:00;;;;;;;5.32;2.20;;;20.60;88.10;;;;;;5027923;28;20040;-58
2023/09/23 12:40:26;;;;;;;3.42;1.90;;;21.20;87.50;;;;;;5022123;28;20021;-58
2023/09/23 12:42:52;;;;;;;6.35;2.13;;;21.40;85.80;;;;;;5026153;28;20029;-59
2023/09/23 12:45:17;;;;;;;5.00;2.00;;;21.70;87.10;;;;;;5026684;28;20032;-59
2023/09/23 12:47:44;;;;;;;4.00;1.73;;;21.90;83.90;;;;;;5025661;28;20029;-59
2023/09/23 12:50:09;;;;;;;2.78;1.80;;;22.10;87.90;;;;;;5022732;28;20024;-58